Time;durP1;ratioP1;P1;durP2;ratioP2;P2;SDS_P1;SDS_P2;PMS_P1;PMS_P2;Temp;Humidity;BMP_temperature;BMP_pressure;BME280_temperature;BME280_humidity;BME280_pressure;Samples;Min_cycle;Max_cycle;Signal;HPM_P1;HPM_P2
2022/08/29 00:01:45;;;;;;;2.03;1.50;;;;;;;16.62;82.89;102377.94;5066816;28;20024;-61
2022/08/29 00:04:11;;;;;;;4.63;1.95;;;;;;;16.59;83.21;102377.19;5063848;28;20075;-60
2022/08/29 00:06:36;;;;;;;4.00;2.00;;;;;;;16.50;83.65;102370.41;5062769;28;20025;-60
2022/08/29 00:09:01;;;;;;;3.42;1.90;;;;;;;16.48;84.00;102369.56;5066087;28;20115;-60
2022/08/29 00:11:27;;;;;;;5.00;2.55;;;;;;;16.45;84.35;102369.69;5065498;28;20146;-60
2022/08/29 00:13:52;;;;;;;6.85;1.98;;;;;;;16.38;84.30;102372.53;5066965;28;20723;-60
2022/08/29 00:16:17;;;;;;;6.00;2.17;;;;;;;16.34;84.54;102367.41;5066504;28;20040;-60
2022/08/29 00:18:43;;;;;;;2.80;2.00;;;;;;;16.29;84.40;102371.06;5065466;28;20258;-60
2022/08/29 00:21:08;;;;;;;5.53;2.00;;;;;;;16.23;84.95;102375.72;5065686;28;20071;-60
2022/08/29 00:23:34;;;;;;;7.53;2.42;;;;;;;16.17;84.81;102372.34;5065991;28;20364;-61
2022/08/29 00:25:59;;;;;;;7.15;2.22;;;;;;;16.11;85.13;102377.00;5047537;28;20057;-60
2022/08/29 00:28:25;;;;;;;7.07;2.42;;;;;;;16.06;84.75;102371.84;5047846;28;20021;-60
2022/08/29 00:30:51;;;;;;;3.88;2.55;;;;;;;15.99;85.13;102376.50;5066592;28;20020;-60
2022/08/29 00:33:16;;;;;;;4.53;2.50;;;;;;;15.98;85.01;102376.56;5065448;28;20024;-59
2022/08/29 00:35:43;;;;;;;3.58;2.10;;;;;;;15.95;85.65;102376.63;5064832;28;20031;-60
2022/08/29 00:38:10;;;;;;;4.43;2.28;;;;;;;15.89;85.65;102386.50;5065459;28;20537;-62
2022/08/29 00:40:46;;;;;;;7.38;2.40;;;;;;;15.85;85.67;102382.22;5047773;28;20032;-60
2022/08/29 00:43:11;;;;;;;10.20;2.58;;;;;;;15.81;85.90;102385.91;5066051;28;20052;-60
2022/08/29 00:45:42;;;;;;;3.80;2.25;;;;;;;15.80;85.98;102384.13;5065747;28;20055;-60
2022/08/29 00:48:11;;;;;;;4.82;2.30;;;;;;;15.74;86.04;102379.88;5064453;28;20032;-60
2022/08/29 00:50:41;;;;;;;5.10;2.20;;;;;;;15.69;86.20;102383.59;5048104;28;20119;-61
2022/08/29 00:53:10;;;;;;;6.07;2.45;;;;;;;15.66;86.51;102385.44;5047065;28;20025;-60
2022/08/29 00:55:36;;;;;;;4.30;1.90;;;;;;;15.63;86.95;102382.00;5065979;28;20605;-61
2022/08/29 00:58:07;;;;;;;6.28;2.20;;;;;;;15.61;87.15;102375.88;5047991;28;20024;-60
2022/08/29 01:00:33;;;;;;;7.90;2.58;;;;;;;15.63;87.04;102366.94;5047659;28;20501;-60
2022/08/29 01:02:58;;;;;;;5.07;2.30;;;;;;;15.61;87.35;102368.78;5062969;28;20068;-59
2022/08/29 01:05:24;;;;;;;8.18;2.83;;;;;;;15.60;87.28;102377.69;5065828;28;20123;-60
2022/08/29 01:07:50;;;;;;;2.83;2.08;;;;;;;15.59;87.64;102373.25;5056463;22;20732;-62
2022/08/29 01:13:01;;;;;;;4.28;2.47;;;;;;;15.53;87.71;102376.09;5030434;28;20124;-60
2022/08/29 01:15:28;;;;;;;6.03;2.67;;;;;;;15.51;87.98;102378.78;5045515;28;20418;-61
2022/08/29 01:17:53;;;;;;;2.92;2.10;;;;;;;15.49;87.70;102385.06;5043323;28;20040;-58
2022/08/29 01:20:24;;;;;;;4.40;2.28;;;;;;;15.46;88.05;102382.50;5027322;28;20025;-61
2022/08/29 01:23:02;;;;;;;3.40;2.28;;;;;;;15.45;87.96;102388.75;5045442;28;20475;-60
2022/08/29 01:25:34;;;;;;;2.78;2.20;;;;;;;15.46;87.83;102385.16;5027291;28;20025;-60
2022/08/29 01:28:22;;;;;;;8.73;2.40;;;;;;;15.39;88.06;102385.34;5027522;28;20017;-62
2022/08/29 01:31:03;;;;;;;4.45;2.35;;;;;;;15.38;88.34;102383.63;5042379;28;20095;-60
2022/08/29 01:33:41;;;;;;;4.40;2.20;;;;;;;15.37;88.48;102384.53;5025282;28;20132;-62
2022/08/29 01:36:09;;;;;;;3.63;2.58;;;;;;;15.41;88.33;102387.97;5043713;28;20443;-60
2022/08/29 01:38:35;;;;;;;4.72;2.55;;;;;;;15.36;88.12;102387.25;5026511;28;20096;-61
2022/08/29 01:41:01;;;;;;;4.20;2.05;;;;;;;15.39;88.25;102388.00;5045065;28;20114;-61
2022/08/29 01:43:27;;;;;;;4.53;2.60;;;;;;;15.32;88.79;102383.78;5044899;28;20115;-61
2022/08/29 01:45:52;;;;;;;3.60;2.42;;;;;;;15.28;88.71;102385.69;5044126;28;20166;-61
2022/08/29 01:48:18;;;;;;;5.53;2.70;;;;;;;15.24;88.77;102377.84;5054650;28;20028;-61
2022/08/29 01:50:45;;;;;;;6.07;3.00;;;;;;;15.22;88.83;102377.00;5054749;28;20017;-61
2022/08/29 01:53:11;;;;;;;3.50;2.70;;;;;;;15.25;88.67;102375.16;5044269;28;20032;-60
2022/08/29 01:55:36;;;;;;;4.07;2.72;;;;;;;15.18;88.88;102380.69;5043925;28;20033;-61
2022/08/29 01:58:02;;;;;;;10.15;3.00;;;;;;;15.13;89.04;102381.69;5044837;28;20122;-61
2022/08/29 02:00:28;;;;;;;5.85;2.47;;;;;;;15.08;89.29;102390.69;5044740;28;20024;-62
2022/08/29 02:02:55;;;;;;;5.43;2.67;;;;;;;15.03;89.42;102393.47;5026267;28;20100;-59
2022/08/29 02:05:22;;;;;;;3.70;3.13;;;;;;;15.02;89.50;102387.28;5044161;28;20025;-61
2022/08/29 02:07:48;;;;;;;8.73;3.03;;;;;;;14.99;89.45;102383.88;5043435;28;20438;-61
2022/08/29 02:10:13;;;;;;;6.60;3.72;;;;;;;14.97;89.53;102388.34;5043638;28;20191;-60
2022/08/29 02:12:39;;;;;;;5.03;3.88;;;;;;;14.93;89.53;102381.38;5026488;28;20511;-60
2022/08/29 02:15:05;;;;;;;6.88;3.70;;;;;;;14.94;89.40;102385.75;5043974;28;20039;-60
2022/08/29 02:17:30;;;;;;;6.15;3.63;;;;;;;14.90;89.84;102395.63;5043054;28;20025;-60
2022/08/29 02:19:55;;;;;;;5.28;3.28;;;;;;;14.89;89.74;102383.22;5044048;28;20027;-60
2022/08/29 02:22:21;;;;;;;7.30;3.35;;;;;;;14.84;90.12;102383.34;5044292;28;20395;-60
2022/08/29 02:24:46;;;;;;;7.80;3.95;;;;;;;14.82;90.14;102382.53;5043037;28;20048;-61
2022/08/29 02:27:12;;;;;;;5.15;3.40;;;;;;;14.84;89.95;102383.34;5044521;28;20658;-61
2022/08/29 02:29:38;;;;;;;8.25;3.58;;;;;;;14.84;90.11;102377.19;5044208;28;20025;-61
2022/08/29 02:32:10;;;;;;;6.00;4.20;;;;;;;14.80;90.39;102381.72;5043864;28;20724;-60
2022/08/29 02:34:36;;;;;;;6.47;3.58;;;;;;;14.83;90.15;102371.00;5043641;28;20029;-60
2022/08/29 02:37:03;;;;;;;7.47;3.63;;;;;;;14.85;90.04;102377.16;5025583;28;20529;-60
2022/08/29 02:39:29;;;;;;;7.85;3.85;;;;;;;14.87;90.15;102380.63;5044224;28;20104;-60
2022/08/29 02:41:55;;;;;;;8.77;3.70;;;;;;;14.84;89.78;102383.34;5044290;28;20024;-60
2022/08/29 02:44:20;;;;;;;5.90;3.42;;;;;;;14.85;90.22;102386.88;5044724;28;20025;-60
2022/08/29 02:46:46;;;;;;;6.35;3.53;;;;;;;14.83;90.28;102389.59;5041844;28;20032;-60
2022/08/29 02:49:11;;;;;;;5.78;3.60;;;;;;;14.84;90.12;102385.16;5041911;28;20029;-60
2022/08/29 02:51:36;;;;;;;5.50;3.95;;;;;;;14.85;90.45;102387.78;5042474;28;20017;-60
2022/08/29 02:54:02;;;;;;;6.95;3.85;;;;;;;14.87;90.25;102388.59;5043111;28;20057;-60
2022/08/29 02:56:28;;;;;;;8.95;4.28;;;;;;;14.83;90.83;102389.59;5042665;28;20040;-61
2022/08/29 02:58:54;;;;;;;7.53;4.43;;;;;;;14.83;90.82;102388.69;5043220;28;20167;-60
2022/08/29 03:01:22;;;;;;;5.65;3.92;;;;;;;14.81;90.70;102394.06;5025534;28;20116;-60
2022/08/29 03:03:49;;;;;;;9.80;3.72;;;;;;;14.82;90.84;102395.81;5043337;28;20048;-60
2022/08/29 03:06:14;;;;;;;7.03;3.75;;;;;;;14.83;90.74;102392.25;5041995;28;20013;-61
2022/08/29 03:08:40;;;;;;;6.43;3.42;;;;;;;14.86;90.74;102392.16;5063901;28;20051;-60
2022/08/29 03:11:06;;;;;;;8.13;3.75;;;;;;;14.87;90.75;102390.38;5037459;28;20029;-60
2022/08/29 03:13:32;;;;;;;5.60;3.80;;;;;;;14.89;90.87;102381.47;5042957;28;20025;-60
2022/08/29 03:15:58;;;;;;;5.20;3.50;;;;;;;14.88;90.88;102381.50;5043100;28;20029;-61
2022/08/29 03:18:23;;;;;;;5.72;3.42;;;;;;;14.88;91.44;102379.72;5043235;28;20120;-61
2022/08/29 03:20:48;;;;;;;4.38;3.35;;;;;;;14.88;90.96;102382.38;5044436;28;20032;-60
2022/08/29 03:23:14;;;;;;;8.68;3.38;;;;;;;14.85;91.15;102374.50;5044350;28;20033;-61
2022/08/29 03:25:39;;;;;;;9.43;3.53;;;;;;;14.82;91.08;102374.59;5043015;28;20013;-60
2022/08/29 03:28:05;;;;;;;8.45;3.70;;;;;;;14.80;90.87;102368.44;5046013;28;20108;-60
2022/08/29 03:30:30;;;;;;;6.25;3.30;;;;;;;14.81;90.80;102367.50;5046574;28;20025;-60
2022/08/29 03:32:56;;;;;;;6.88;3.42;;;;;;;14.81;90.90;102359.56;5046557;28;20507;-60
2022/08/29 03:35:22;;;;;;;9.93;3.80;;;;;;;14.78;91.01;102360.50;5047880;28;20021;-60
2022/08/29 03:37:48;;;;;;;4.35;3.30;;;;;;;14.81;90.75;102356.91;5046353;28;20028;-61
2022/08/29 03:40:14;;;;;;;4.97;3.35;;;;;;;14.80;91.33;102365.78;5047102;28;20071;-62
2022/08/29 03:42:41;;;;;;;11.27;3.05;;;;;;;14.82;91.08;102363.09;5046627;28;20028;-62
2022/08/29 03:45:09;;;;;;;11.20;3.40;;;;;;;14.81;91.03;102351.59;5046916;28;20036;-60
2022/08/29 03:47:34;;;;;;;7.25;3.55;;;;;;;14.86;91.57;102349.69;5045631;28;20025;-61
2022/08/29 03:49:59;;;;;;;6.45;3.50;;;;;;;14.95;90.89;102342.38;5046667;28;20060;-61
2022/08/29 03:52:25;;;;;;;6.80;3.45;;;;;;;14.94;91.14;102349.50;5066454;28;20051;-60
2022/08/29 03:54:51;;;;;;;7.55;3.28;;;;;;;14.98;91.37;102348.47;5066782;28;20067;-60
2022/08/29 03:57:16;;;;;;;5.35;3.10;;;;;;;15.04;91.15;102331.50;5065548;28;20016;-60
2022/08/29 03:59:42;;;;;;;12.38;3.70;;;;;;;15.13;90.28;102336.56;5066674;28;20397;-61
2022/08/29 04:02:07;;;;;;;4.57;2.95;;;;;;;15.08;90.37;102335.81;5048680;28;20059;-60
2022/08/29 04:07:16;;;;;;;7.25;2.92;;;;;;;15.05;90.35;102338.53;5034876;28;20044;-60
2022/08/29 04:09:42;;;;;;;5.85;2.90;;;;;;;15.04;90.61;102339.47;5045561;28;20041;-61
2022/08/29 04:12:10;;;;;;;4.50;3.20;;;;;;;15.05;90.34;102340.34;5046553;28;20021;-62
2022/08/29 04:14:36;;;;;;;5.87;3.17;;;;;;;15.03;90.16;102337.75;5046095;28;20449;-60
2022/08/29 04:17:03;;;;;;;4.70;3.58;;;;;;;15.00;90.51;102340.47;5027497;28;20121;-60
2022/08/29 04:19:28;;;;;;;5.78;3.22;;;;;;;14.96;90.49;102345.00;5045980;28;20055;-59
2022/08/29 04:21:55;;;;;;;5.57;3.05;;;;;;;14.96;90.74;102352.94;5045443;28;20057;-59
2022/08/29 04:24:20;;;;;;;5.63;3.10;;;;;;;14.94;90.56;102351.25;5046970;28;20025;-60
2022/08/29 04:26:46;;;;;;;5.88;3.42;;;;;;;14.86;90.62;102355.00;5046018;28;20024;-61
2022/08/29 04:29:12;;;;;;;3.55;2.92;;;;;;;14.95;90.32;102351.22;5046137;28;20431;-61
2022/08/29 04:31:40;;;;;;;5.50;3.58;;;;;;;14.89;90.04;102354.94;5044910;28;20040;-61
2022/08/29 04:34:07;;;;;;;12.45;3.35;;;;;;;14.79;89.75;102361.41;5045555;28;20025;-61
2022/08/29 04:36:33;;;;;;;4.53;3.13;;;;;;;14.74;90.00;102361.50;5045341;28;20025;-60
2022/08/29 04:38:58;;;;;;;6.80;3.17;;;;;;;14.71;90.05;102361.56;5045454;28;20064;-60
2022/08/29 04:41:24;;;;;;;6.22;3.50;;;;;;;14.75;90.08;102367.69;5045661;28;20542;-60
2022/08/29 04:43:49;;;;;;;6.68;3.70;;;;;;;14.76;89.87;102369.41;5046258;28;20449;-60
2022/08/29 04:46:15;;;;;;;6.05;3.65;;;;;;;14.74;89.75;102369.44;5038343;28;20864;-60
2022/08/29 04:48:40;;;;;;;6.38;2.88;;;;;;;14.75;89.43;102368.53;5034192;28;20036;-60
2022/08/29 04:51:06;;;;;;;7.68;3.65;;;;;;;14.82;89.39;102369.28;5035618;28;20183;-59
2022/08/29 04:53:31;;;;;;;4.50;3.50;;;;;;;14.84;89.69;102366.59;5033740;28;20438;-60
2022/08/29 04:56:05;;;;;;;9.30;3.60;;;;;;;14.94;89.38;102373.38;5035634;28;20049;-60
2022/08/29 04:58:30;;;;;;;6.57;3.40;;;;;;;14.91;89.38;102376.97;5032000;28;20499;-64
2022/08/29 05:00:56;;;;;;;5.07;3.13;;;;;;;14.98;89.31;102377.69;5044277;28;20072;-64
2022/08/29 05:03:22;;;;;;;4.78;3.25;;;;;;;15.05;89.07;102381.00;5038080;28;20113;-64
2022/08/29 05:06:01;;;;;;;5.82;2.97;;;;;;;15.23;88.68;102384.09;5032924;28;20024;-64
2022/08/29 05:08:27;;;;;;;7.07;3.40;;;;;;;15.35;88.18;102383.72;5035570;28;20037;-64
2022/08/29 05:10:53;;;;;;;5.43;3.50;;;;;;;15.40;87.59;102381.78;5036494;28;20021;-65
2022/08/29 05:13:19;;;;;;;8.73;3.47;;;;;;;15.37;87.34;102386.31;5035125;28;20419;-63
2022/08/29 05:15:44;;;;;;;9.77;3.60;;;;;;;15.44;87.40;102389.69;5036364;28;20170;-64
2022/08/29 05:18:12;;;;;;;5.72;3.33;;;;;;;15.46;87.18;102379.84;5034671;28;20033;-64
2022/08/29 05:20:41;;;;;;;9.02;3.58;;;;;;;15.51;86.98;102385.91;5032528;28;20029;-65
2022/08/29 05:23:07;;;;;;;4.95;3.25;;;;;;;15.56;86.73;102391.94;5044821;28;20388;-65
2022/08/29 05:25:32;;;;;;;6.60;3.47;;;;;;;15.59;86.79;102391.00;5044576;28;20024;-64
2022/08/29 05:27:58;;;;;;;6.82;3.33;;;;;;;15.61;87.22;102394.47;5044496;28;20356;-64
2022/08/29 05:30:24;;;;;;;5.13;3.50;;;;;;;15.65;87.11;102390.78;5043656;28;20109;-62
2022/08/29 05:32:50;;;;;;;6.45;3.33;;;;;;;15.72;86.70;102396.81;5043907;28;20111;-64
2022/08/29 05:35:15;;;;;;;5.72;3.22;;;;;;;15.78;86.24;102386.00;5043267;28;20115;-63
2022/08/29 05:37:40;;;;;;;6.60;3.30;;;;;;;15.89;85.79;102390.94;5043321;28;20096;-63
2022/08/29 05:40:06;;;;;;;6.93;3.90;;;;;;;15.94;85.85;102389.03;5026400;28;20051;-65
2022/08/29 05:42:32;;;;;;;7.78;3.53;;;;;;;15.96;85.43;102394.28;5043362;28;20025;-65
2022/08/29 05:44:58;;;;;;;5.10;3.03;;;;;;;16.10;85.38;102396.56;5037212;28;20025;-64
2022/08/29 05:47:24;;;;;;;5.50;3.55;;;;;;;16.19;84.94;102400.69;5043034;28;20098;-65
2022/08/29 05:49:49;;;;;;;4.28;3.17;;;;;;;16.23;84.26;102397.00;5043680;28;20025;-64
2022/08/29 05:52:18;;;;;;;6.78;3.95;;;;;;;16.37;83.97;102399.19;5013473;28;20390;-64
2022/08/29 05:54:43;;;;;;;7.35;3.22;;;;;;;16.35;83.21;102406.38;5043789;28;20706;-63
2022/08/29 05:57:11;;;;;;;7.30;3.53;;;;;;;16.33;83.46;102409.09;5042474;28;20044;-63
2022/08/29 05:59:37;;;;;;;8.77;3.50;;;;;;;16.41;83.30;102403.50;5025583;28;20036;-63
2022/08/29 06:02:03;;;;;;;6.55;3.78;;;;;;;16.36;83.78;102406.31;5042013;28;20033;-64
2022/08/29 06:04:29;;;;;;;7.07;3.05;;;;;;;16.35;83.33;102404.59;5034972;28;20032;-63
2022/08/29 06:06:54;;;;;;;9.45;3.22;;;;;;;16.51;82.74;102409.38;5035619;28;20407;-63
2022/08/29 06:09:19;;;;;;;5.15;3.40;;;;;;;16.60;82.89;102406.41;5031806;28;20466;-63
2022/08/29 06:11:47;;;;;;;7.13;3.40;;;;;;;16.73;82.34;102408.63;5032183;28;20502;-63
2022/08/29 06:14:13;;;;;;;7.30;3.47;;;;;;;16.76;81.77;102401.41;5034078;28;20502;-64
2022/08/29 06:16:39;;;;;;;6.10;3.45;;;;;;;16.94;81.04;102407.00;5041218;28;20045;-63
2022/08/29 06:19:04;;;;;;;7.90;3.45;;;;;;;17.05;80.95;102396.84;5043435;28;20056;-63
2022/08/29 06:21:30;;;;;;;6.65;3.28;;;;;;;17.27;79.87;102400.50;5042098;28;20029;-64
2022/08/29 06:23:56;;;;;;;9.65;3.80;;;;;;;17.40;79.54;102404.47;5042689;28;20048;-66
2022/08/29 06:26:21;;;;;;;6.80;3.53;;;;;;;17.43;79.67;102406.16;5043969;28;20111;-65
2022/08/29 06:28:47;;;;;;;5.90;3.38;;;;;;;17.45;79.00;102403.44;5043531;28;20424;-63
2022/08/29 06:31:20;;;;;;;7.18;3.92;;;;;;;17.67;79.10;102403.47;5042769;28;20025;-62
2022/08/29 06:33:46;;;;;;;6.43;3.30;;;;;;;17.80;77.52;102402.06;5043006;28;20559;-62
2022/08/29 06:36:12;;;;;;;6.43;2.80;;;;;;;17.97;76.58;102404.97;5042774;28;20104;-63
2022/08/29 06:38:37;;;;;;;5.55;2.90;;;;;;;17.96;76.82;102408.53;5039323;28;20075;-63
2022/08/29 06:41:10;;;;;;;4.63;2.90;;;;;;;17.88;77.88;102407.06;5032101;28;20143;-63
2022/08/29 06:43:35;;;;;;;6.68;3.50;;;;;;;18.05;78.33;102413.53;5032655;28;20021;-63
2022/08/29 06:46:01;;;;;;;3.88;2.92;;;;;;;18.28;77.06;102415.28;5036979;28;20569;-63
2022/08/29 06:48:26;;;;;;;8.02;3.42;;;;;;;18.33;77.16;102412.41;5033510;28;20017;-63
2022/08/29 06:50:52;;;;;;;10.88;3.10;;;;;;;18.19;78.57;102413.00;5033250;28;20060;-63
2022/08/29 06:53:18;;;;;;;8.43;3.15;;;;;;;18.28;78.66;102409.94;5035478;28;20018;-63
2022/08/29 06:55:44;;;;;;;5.32;2.92;;;;;;;18.63;77.32;102416.53;5031199;28;20487;-63
2022/08/29 06:58:11;;;;;;;9.30;3.25;;;;;;;18.54;77.19;102423.09;5032842;28;20056;-64
2022/08/29 07:00:39;;;;;;;9.43;3.50;;;;;;;18.73;77.36;102419.66;5033302;28;20052;-63
2022/08/29 07:03:05;;;;;;;7.18;3.42;;;;;;;18.73;76.28;102419.66;5034771;28;20054;-62
2022/08/29 07:05:30;;;;;;;5.38;3.25;;;;;;;18.95;75.90;102414.22;5038913;28;20792;-62
2022/08/29 07:07:56;;;;;;;8.30;2.92;;;;;;;19.08;75.61;102417.25;5036234;28;20041;-63
2022/08/29 07:10:21;;;;;;;15.57;3.22;;;;;;;19.29;75.12;102412.72;5035965;28;20656;-63
2022/08/29 07:12:46;;;;;;;4.82;2.70;;;;;;;19.49;73.42;102418.09;5036369;28;20013;-63
2022/08/29 07:15:12;;;;;;;7.40;3.00;;;;;;;19.56;74.14;102416.84;5037002;28;20029;-64
2022/08/29 07:17:37;;;;;;;7.18;2.83;;;;;;;19.61;72.55;102417.50;5034239;28;20017;-63
2022/08/29 07:20:03;;;;;;;9.05;2.80;;;;;;;19.75;70.88;102410.66;5038242;28;20051;-63
2022/08/29 07:22:28;;;;;;;6.13;2.55;;;;;;;19.85;71.74;102411.06;5037027;28;20093;-63
2022/08/29 07:24:57;;;;;;;8.88;2.88;;;;;;;20.03;70.24;102406.66;5025763;28;20104;-62
2022/08/29 07:27:22;;;;;;;9.57;2.88;;;;;;;20.01;71.57;102406.72;5027386;28;20511;-62
2022/08/29 07:29:47;;;;;;;8.80;3.15;;;;;;;20.25;70.64;102393.06;5009247;28;20029;-63
2022/08/29 07:32:13;;;;;;;8.77;3.67;;;;;;;20.36;69.49;102392.53;5026548;28;20095;-63
2022/08/29 07:34:38;;;;;;;7.88;3.50;;;;;;;20.45;68.47;102394.75;5038738;28;20099;-63
2022/08/29 07:37:04;;;;;;;6.97;3.55;;;;;;;20.54;68.11;102403.22;5047195;28;20060;-62
2022/08/29 07:39:30;;;;;;;6.78;3.35;;;;;;;20.56;66.20;102401.34;5046109;28;20104;-62
2022/08/29 07:41:55;;;;;;;7.75;3.60;;;;;;;20.84;65.53;102406.09;5046543;28;20033;-62
2022/08/29 07:44:20;;;;;;;8.80;3.60;;;;;;;20.95;64.16;102402.88;5047369;28;20021;-62
2022/08/29 07:46:46;;;;;;;7.50;3.80;;;;;;;20.91;63.93;102404.00;5045669;28;20339;-64
2022/08/29 07:49:11;;;;;;;9.02;3.55;;;;;;;20.81;62.42;102408.09;5044840;28;20464;-62
2022/08/29 07:51:38;;;;;;;7.28;3.03;;;;;;;20.76;62.54;102405.66;5038321;28;20655;-62
2022/08/29 07:54:04;;;;;;;9.43;4.03;;;;;;;20.85;60.83;102409.66;5027952;28;20434;-62
2022/08/29 07:56:33;;;;;;;10.52;3.30;;;;;;;20.91;60.52;102404.00;5044972;28;20018;-61
2022/08/29 07:58:59;;;;;;;8.88;3.53;;;;;;;20.88;61.37;102398.78;5035235;28;20038;-63
2022/08/29 08:01:25;;;;;;;7.00;3.35;;;;;;;20.99;61.69;102395.56;5034887;28;20039;-62
2022/08/29 08:03:51;;;;;;;7.00;3.45;;;;;;;20.93;60.19;102396.75;5047078;28;20036;-63
2022/08/29 08:06:18;;;;;;;5.43;3.17;;;;;;;21.02;59.23;102402.56;5045846;28;20059;-63
2022/08/29 08:08:43;;;;;;;13.32;3.58;;;;;;;21.16;59.36;102397.31;5046009;28;20554;-62
2022/08/29 08:11:08;;;;;;;7.32;3.15;;;;;;;21.12;58.47;102390.41;5046374;28;20167;-62
2022/08/29 08:13:36;;;;;;;10.38;3.70;;;;;;;20.85;59.05;102406.97;5045512;28;20057;-62
2022/08/29 08:16:10;;;;;;;7.55;3.10;;;;;;;21.03;58.45;102401.59;5045495;28;20029;-63
2022/08/29 08:18:37;;;;;;;8.23;3.67;;;;;;;20.97;59.86;102408.16;5045144;28;20025;-62
2022/08/29 08:21:02;;;;;;;9.65;3.20;;;;;;;21.12;58.67;102409.16;5045719;28;20041;-62
2022/08/29 08:23:28;;;;;;;5.55;3.53;;;;;;;21.29;58.49;102410.06;5046024;28;20024;-62
2022/08/29 08:25:53;;;;;;;7.93;3.55;;;;;;;21.29;58.66;102402.00;5045485;28;20017;-61
2022/08/29 08:28:19;;;;;;;8.38;3.42;;;;;;;21.44;58.62;102411.91;5046064;28;20025;-62
2022/08/29 08:30:44;;;;;;;10.60;3.95;;;;;;;21.62;59.08;102414.50;5044956;28;20040;-62
2022/08/29 08:33:10;;;;;;;4.88;3.00;;;;;;;21.65;58.11;102411.66;5044568;28;20025;-62
2022/08/29 08:35:37;;;;;;;9.20;3.47;;;;;;;21.78;58.07;102410.97;5045180;28;20013;-62
2022/08/29 08:38:04;;;;;;;10.55;3.10;;;;;;;22.07;56.67;102419.16;5045802;28;20033;-64
2022/08/29 08:40:30;;;;;;;6.43;3.13;;;;;;;22.21;56.93;102412.97;5045271;28;20553;-63
2022/08/29 08:42:59;;;;;;;8.82;3.33;;;;;;;22.32;55.75;102415.91;5026941;28;20029;-62
2022/08/29 08:45:32;;;;;;;8.63;3.58;;;;;;;22.28;56.20;102413.50;5045818;28;20075;-62
2022/08/29 08:48:09;;;;;;;6.47;3.45;;;;;;;22.20;55.96;102414.81;5025635;28;20463;-64
2022/08/29 08:50:52;;;;;;;11.95;2.95;;;;;;;22.27;56.06;102425.19;5015103;28;20029;-63
2022/08/29 08:53:41;;;;;;;12.98;3.45;;;;;;;22.15;54.90;102427.63;5029222;28;20025;-64
2022/08/29 08:56:32;;;;;;;9.82;3.97;;;;;;;22.36;55.25;102429.16;5024351;28;20116;-63
2022/08/29 08:59:13;;;;;;;9.23;3.28;;;;;;;22.17;56.88;102428.41;5028656;28;20170;-63
2022/08/29 09:01:42;;;;;;;10.35;3.33;;;;;;;22.05;56.44;102427.31;5009355;28;20054;-65
2022/08/29 09:04:09;;;;;;;;;;;;;;;22.26;57.81;102416.25;5027549;28;20032;-67
2022/08/29 09:07:16;;;;;;;11.75;3.35;;;;;;;22.23;55.32;102429.88;5044259;28;19917;-63
2022/08/29 09:09:44;;;;;;;6.38;3.10;;;;;;;22.01;57.11;102424.88;5024445;28;20102;-64
2022/08/29 09:12:34;;;;;;;7.82;3.90;;;;;;;22.17;56.69;102428.41;5044353;28;20720;-63
2022/08/29 09:15:01;;;;;;;7.03;3.17;;;;;;;22.11;56.58;102431.44;5043788;28;20021;-63
2022/08/29 09:17:35;;;;;;;9.75;3.70;;;;;;;22.05;56.49;102424.63;5012733;28;20087;-63
2022/08/29 09:20:02;;;;;;;5.95;3.17;;;;;;;22.17;56.74;102431.09;5023428;28;20889;-63
2022/08/29 09:22:29;;;;;;;8.93;3.28;;;;;;;22.19;56.58;102431.84;5036264;28;20042;-63
2022/08/29 09:25:02;;;;;;;9.38;3.35;;;;;;;22.42;57.37;102434.13;5020688;28;20049;-62
2022/08/29 09:27:30;;;;;;;7.40;3.05;;;;;;;22.28;56.91;102426.91;5033944;28;20518;-63
2022/08/29 09:30:04;;;;;;;9.70;3.22;;;;;;;22.52;57.91;102429.09;5035440;28;20033;-63
2022/08/29 09:32:29;;;;;;;9.38;3.60;;;;;;;22.71;56.43;102428.88;5015441;28;20037;-64
2022/08/29 09:34:55;;;;;;;6.95;3.67;;;;;;;23.10;54.05;102429.19;5032557;28;20040;-64
2022/08/29 09:37:21;;;;;;;8.15;2.88;;;;;;;23.49;52.27;102429.50;5036703;28;20099;-64
2022/08/29 09:40:06;;;;;;;7.68;3.90;;;;;;;23.53;52.75;102422.94;5032548;28;20068;-62
2022/08/29 09:42:34;;;;;;;7.68;3.50;;;;;;;23.78;52.48;102423.19;5034407;28;20020;-64
2022/08/29 09:45:08;;;;;;;12.10;3.58;;;;;;;24.05;49.90;102425.88;5034627;28;20028;-63
2022/08/29 09:47:34;;;;;;;9.63;3.25;;;;;;;23.88;51.38;102423.44;5030954;28;20163;-62
2022/08/29 09:50:18;;;;;;;4.78;3.28;;;;;;;23.68;51.04;102423.78;5013809;28;20021;-62
2022/08/29 09:52:54;;;;;;;10.55;2.90;;;;;;;23.52;50.76;102418.53;5036947;28;20036;-62
2022/08/29 09:55:38;;;;;;;6.03;3.05;;;;;;;23.89;51.37;102428.72;5044183;28;20107;-63
2022/08/29 09:58:09;;;;;;;11.20;3.80;;;;;;;23.19;52.94;102419.69;5022399;28;20029;-63
2022/08/29 10:00:43;;;;;;;11.00;3.42;;;;;;;23.09;52.70;102416.72;5024061;28;20033;-62
2022/08/29 10:03:19;;;;;;;9.40;3.67;;;;;;;23.36;53.34;102421.31;5007706;28;20056;-63
2022/08/29 10:05:45;;;;;;;7.50;3.53;;;;;;;23.27;53.05;102419.22;5005828;28;20603;-64
2022/08/29 10:08:29;;;;;;;7.15;3.63;;;;;;;23.44;52.36;102421.72;5024949;28;20136;-60
2022/08/29 10:10:59;;;;;;;13.98;3.63;;;;;;;23.13;53.88;102429.00;5044087;28;20063;-58
2022/08/29 10:13:47;;;;;;;9.27;3.40;;;;;;;23.39;53.34;102429.19;5039429;28;20022;-59
2022/08/29 10:16:47;;;;;;;9.68;3.75;;;;;;;23.52;53.09;102428.44;5034999;28;20032;-60
2022/08/29 10:19:20;;;;;;;6.68;3.03;;;;;;;23.62;53.18;102429.56;5029331;28;20041;-60
2022/08/29 10:21:50;;;;;;;10.18;4.22;;;;;;;23.48;52.28;102420.56;5029973;28;20036;-60
2022/08/29 10:24:27;;;;;;;10.50;3.60;;;;;;;23.14;53.32;102419.97;5033957;28;20021;-61
2022/08/29 10:27:15;;;;;;;11.45;3.40;;;;;;;23.36;52.81;102421.31;5044140;28;20033;-60
2022/08/29 10:30:01;;;;;;;12.23;3.00;;;;;;;23.02;53.54;102426.16;5042277;28;20531;-60
2022/08/29 10:32:40;;;;;;;7.32;3.50;;;;;;;23.33;53.76;102419.69;5024456;28;20021;-61
2022/08/29 10:35:13;;;;;;;8.02;3.22;;;;;;;23.13;54.57;102426.31;5043934;28;20025;-59
2022/08/29 10:37:55;;;;;;;7.38;3.25;;;;;;;23.16;53.82;102423.44;5045886;28;20052;-60
2022/08/29 10:40:27;;;;;;;9.27;3.20;;;;;;;23.52;53.80;102429.31;5047164;28;20553;-59
2022/08/29 10:43:11;;;;;;;4.90;3.13;;;;;;;23.51;53.43;102422.16;5030554;28;20033;-59
2022/08/29 10:45:51;;;;;;;12.82;3.42;;;;;;;23.78;51.77;102417.81;5028895;28;20033;-60
2022/08/29 10:48:21;;;;;;;6.22;3.40;;;;;;;23.92;52.80;102420.44;5032093;28;20229;-60
2022/08/29 10:50:51;;;;;;;6.40;2.72;;;;;;;23.91;51.77;102417.84;5047218;28;20049;-61
2022/08/29 10:53:25;;;;;;;6.28;2.40;;;;;;;23.63;51.66;102420.50;5045960;28;20035;-60
2022/08/29 10:55:57;;;;;;;5.63;3.38;;;;;;;23.67;51.84;102415.81;5029024;28;20025;-60
2022/08/29 10:58:47;;;;;;;6.15;2.97;;;;;;;23.59;51.85;102408.22;5046222;28;20409;-60
2022/08/29 11:02:07;;;;;;;14.43;4.40;;;;;;;23.26;52.83;102412.13;5045398;28;20056;-60
2022/08/29 11:04:38;;;;;;;10.82;3.35;;;;;;;23.64;52.11;102413.31;5011845;28;20033;-60
2022/08/29 11:07:09;;;;;;;6.53;3.10;;;;;;;23.85;52.29;102417.31;5046314;28;20021;-61
2022/08/29 11:09:40;;;;;;;7.20;2.83;;;;;;;23.96;51.50;102399.59;5046118;28;20136;-59
2022/08/29 11:12:11;;;;;;;9.25;3.20;;;;;;;24.10;51.03;102407.59;5046362;28;20033;-60
2022/08/29 11:14:43;;;;;;;9.35;3.38;;;;;;;24.42;50.66;102406.41;5027816;28;20493;-59
2022/08/29 11:17:13;;;;;;;7.45;3.08;;;;;;;24.65;49.45;102401.22;5027774;28;20371;-60
2022/08/29 11:19:52;;;;;;;5.88;2.88;;;;;;;24.95;47.68;102391.97;5045976;28;20031;-60
2022/08/29 11:22:24;;;;;;;7.03;3.13;;;;;;;25.19;49.76;102393.06;5046483;28;20028;-60
2022/08/29 11:25:02;;;;;;;5.55;2.95;;;;;;;24.97;48.99;102390.06;5046241;28;20078;-60
2022/08/29 11:27:53;;;;;;;7.07;3.40;;;;;;;25.03;48.71;102382.47;5028087;28;20565;-60
2022/08/29 11:30:41;;;;;;;7.63;2.88;;;;;;;24.86;49.33;102380.00;5034825;28;20036;-60
2022/08/29 11:33:12;;;;;;;5.75;3.08;;;;;;;25.58;47.19;102384.81;5025347;28;20069;-59
2022/08/29 11:36:14;;;;;;;5.05;2.63;;;;;;;25.77;45.25;102380.78;5037494;28;20115;-60
2022/08/29 11:38:57;;;;;;;12.45;3.28;;;;;;;25.38;46.94;102375.50;5045793;28;20029;-60